sensor_id;sensor_type;location;lat;lon;timestamp;P1;durP1;ratioP1;P2;durP2;ratioP2
16179;SDS011;8196;49.428;10.906;2022-09-17T00:00:32;1.47;;;1.30;;
16179;SDS011;8196;49.428;10.906;2022-09-17T00:02:59;2.38;;;1.30;;
16179;SDS011;8196;49.428;10.906;2022-09-17T00:05:27;2.00;;;1.30;;
16179;SDS011;8196;49.428;10.906;2022-09-17T00:07:54;1.47;;;1.23;;
16179;SDS011;8196;49.428;10.906;2022-09-17T00:10:21;1.70;;;1.20;;
16179;SDS011;8196;49.428;10.906;2022-09-17T00:12:48;1.80;;;1.25;;
16179;SDS011;8196;49.428;10.906;2022-09-17T00:15:16;2.97;;;1.37;;
16179;SDS011;8196;49.428;10.906;2022-09-17T00:17:43;2.05;;;1.30;;
16179;SDS011;8196;49.428;10.906;2022-09-17T00:20:10;1.70;;;1.10;;
16179;SDS011;8196;49.428;10.906;2022-09-17T00:22:37;3.05;;;1.23;;
16179;SDS011;8196;49.428;10.906;2022-09-17T00:25:05;1.80;;;1.38;;
16179;SDS011;8196;49.428;10.906;2022-09-17T00:27:33;1.50;;;1.02;;
16179;SDS011;8196;49.428;10.906;2022-09-17T00:30:00;2.17;;;1.20;;
16179;SDS011;8196;49.428;10.906;2022-09-17T00:32:27;2.35;;;1.27;;
16179;SDS011;8196;49.428;10.906;2022-09-17T00:34:55;1.60;;;1.10;;
16179;SDS011;8196;49.428;10.906;2022-09-17T00:37:22;2.43;;;1.10;;
16179;SDS011;8196;49.428;10.906;2022-09-17T00:39:49;1.77;;;1.10;;
16179;SDS011;8196;49.428;10.906;2022-09-17T00:42:17;3.50;;;1.42;;
16179;SDS011;8196;49.428;10.906;2022-09-17T00:47:15;3.90;;;1.40;;
16179;SDS011;8196;49.428;10.906;2022-09-17T00:49:43;1.95;;;1.40;;
16179;SDS011;8196;49.428;10.906;2022-09-17T00:52:13;2.58;;;1.60;;
16179;SDS011;8196;49.428;10.906;2022-09-17T00:54:42;2.40;;;1.42;;
16179;SDS011;8196;49.428;10.906;2022-09-17T00:57:10;4.03;;;1.90;;
16179;SDS011;8196;49.428;10.906;2022-09-17T00:59:37;4.50;;;2.20;;
16179;SDS011;8196;49.428;10.906;2022-09-17T01:02:04;2.83;;;1.80;;
16179;SDS011;8196;49.428;10.906;2022-09-17T01:04:32;3.70;;;2.10;;
16179;SDS011;8196;49.428;10.906;2022-09-17T01:10:05;2.95;;;2.20;;
16179;SDS011;8196;49.428;10.906;2022-09-17T01:17:39;4.60;;;2.60;;
16179;SDS011;8196;49.428;10.906;2022-09-17T01:40:16;4.13;;;2.83;;
16179;SDS011;8196;49.428;10.906;2022-09-17T01:42:52;3.25;;;2.85;;
16179;SDS011;8196;49.428;10.906;2022-09-17T01:45:24;5.38;;;3.10;;
16179;SDS011;8196;49.428;10.906;2022-09-17T01:48:01;5.13;;;3.10;;
16179;SDS011;8196;49.428;10.906;2022-09-17T01:50:32;4.38;;;2.97;;
16179;SDS011;8196;49.428;10.906;2022-09-17T01:53:02;5.10;;;3.13;;
16179;SDS011;8196;49.428;10.906;2022-09-17T01:55:32;4.35;;;3.20;;
16179;SDS011;8196;49.428;10.906;2022-09-17T01:58:03;3.83;;;2.70;;
16179;SDS011;8196;49.428;10.906;2022-09-17T02:00:32;4.93;;;3.03;;
16179;SDS011;8196;49.428;10.906;2022-09-17T02:07:57;4.72;;;2.90;;
16179;SDS011;8196;49.428;10.906;2022-09-17T02:10:26;4.15;;;2.83;;
16179;SDS011;8196;49.428;10.906;2022-09-17T02:12:55;3.90;;;2.90;;
16179;SDS011;8196;49.428;10.906;2022-09-17T02:15:26;3.75;;;2.72;;
16179;SDS011;8196;49.428;10.906;2022-09-17T02:17:55;5.28;;;3.05;;
16179;SDS011;8196;49.428;10.906;2022-09-17T02:20:25;4.97;;;2.75;;
16179;SDS011;8196;49.428;10.906;2022-09-17T02:22:55;7.47;;;3.60;;
16179;SDS011;8196;49.428;10.906;2022-09-17T02:25:25;4.20;;;2.97;;
16179;SDS011;8196;49.428;10.906;2022-09-17T02:28:00;5.72;;;2.88;;
16179;SDS011;8196;49.428;10.906;2022-09-17T02:30:29;4.20;;;3.05;;
16179;SDS011;8196;49.428;10.906;2022-09-17T02:32:57;4.15;;;2.80;;
16179;SDS011;8196;49.428;10.906;2022-09-17T02:35:24;5.88;;;3.03;;
16179;SDS011;8196;49.428;10.906;2022-09-17T02:37:51;5.57;;;2.93;;
16179;SDS011;8196;49.428;10.906;2022-09-17T02:40:18;5.70;;;2.90;;
16179;SDS011;8196;49.428;10.906;2022-09-17T02:42:59;5.10;;;2.53;;
16179;SDS011;8196;49.428;10.906;2022-09-17T02:45:39;5.35;;;2.97;;
16179;SDS011;8196;49.428;10.906;2022-09-17T02:48:14;3.67;;;2.40;;
16179;SDS011;8196;49.428;10.906;2022-09-17T02:53:36;4.60;;;2.60;;
16179;SDS011;8196;49.428;10.906;2022-09-17T03:01:17;5.60;;;2.83;;
16179;SDS011;8196;49.428;10.906;2022-09-17T03:03:45;4.90;;;2.50;;
16179;SDS011;8196;49.428;10.906;2022-09-17T03:06:15;2.92;;;2.05;;
16179;SDS011;8196;49.428;10.906;2022-09-17T03:08:44;4.13;;;2.50;;
16179;SDS011;8196;49.428;10.906;2022-09-17T03:11:12;4.47;;;2.28;;
16179;SDS011;8196;49.428;10.906;2022-09-17T03:13:40;4.82;;;2.50;;
16179;SDS011;8196;49.428;10.906;2022-09-17T03:16:07;4.03;;;2.22;;
16179;SDS011;8196;49.428;10.906;2022-09-17T03:18:34;4.63;;;2.22;;
16179;SDS011;8196;49.428;10.906;2022-09-17T03:21:02;3.72;;;2.30;;
16179;SDS011;8196;49.428;10.906;2022-09-17T03:23:29;4.68;;;1.95;;
16179;SDS011;8196;49.428;10.906;2022-09-17T03:25:56;4.70;;;2.20;;
16179;SDS011;8196;49.428;10.906;2022-09-17T03:28:23;4.22;;;2.20;;
16179;SDS011;8196;49.428;10.906;2022-09-17T03:30:52;3.93;;;2.10;;
16179;SDS011;8196;49.428;10.906;2022-09-17T03:33:19;5.82;;;2.38;;
16179;SDS011;8196;49.428;10.906;2022-09-17T03:35:46;4.80;;;2.17;;
16179;SDS011;8196;49.428;10.906;2022-09-17T03:38:13;6.32;;;2.35;;
16179;SDS011;8196;49.428;10.906;2022-09-17T03:40:41;5.57;;;2.17;;
16179;SDS011;8196;49.428;10.906;2022-09-17T03:43:08;3.25;;;2.45;;
16179;SDS011;8196;49.428;10.906;2022-09-17T03:45:35;6.00;;;2.20;;
16179;SDS011;8196;49.428;10.906;2022-09-17T03:48:02;5.35;;;2.17;;
16179;SDS011;8196;49.428;10.906;2022-09-17T03:50:29;5.07;;;2.40;;
16179;SDS011;8196;49.428;10.906;2022-09-17T03:52:56;4.17;;;2.30;;
16179;SDS011;8196;49.428;10.906;2022-09-17T03:55:23;4.43;;;2.00;;
16179;SDS011;8196;49.428;10.906;2022-09-17T03:57:50;4.13;;;2.00;;
16179;SDS011;8196;49.428;10.906;2022-09-17T04:00:18;3.53;;;1.90;;
16179;SDS011;8196;49.428;10.906;2022-09-17T04:02:45;5.18;;;2.17;;
16179;SDS011;8196;49.428;10.906;2022-09-17T04:05:12;5.27;;;2.13;;
16179;SDS011;8196;49.428;10.906;2022-09-17T04:07:39;6.57;;;2.70;;
16179;SDS011;8196;49.428;10.906;2022-09-17T04:10:07;4.03;;;1.85;;
16179;SDS011;8196;49.428;10.906;2022-09-17T04:12:34;4.13;;;2.00;;
16179;SDS011;8196;49.428;10.906;2022-09-17T04:15:02;3.50;;;1.85;;
16179;SDS011;8196;49.428;10.906;2022-09-17T04:17:29;7.75;;;1.90;;
16179;SDS011;8196;49.428;10.906;2022-09-17T04:19:56;5.72;;;1.98;;
16179;SDS011;8196;49.428;10.906;2022-09-17T04:22:24;3.30;;;1.95;;
16179;SDS011;8196;49.428;10.906;2022-09-17T04:24:51;5.00;;;2.00;;
16179;SDS011;8196;49.428;10.906;2022-09-17T04:27:18;5.05;;;1.90;;
16179;SDS011;8196;49.428;10.906;2022-09-17T04:29:45;6.03;;;2.30;;
16179;SDS011;8196;49.428;10.906;2022-09-17T04:32:13;5.45;;;2.00;;
16179;SDS011;8196;49.428;10.906;2022-09-17T04:34:40;4.97;;;2.25;;
16179;SDS011;8196;49.428;10.906;2022-09-17T04:37:07;5.28;;;2.08;;
16179;SDS011;8196;49.428;10.906;2022-09-17T04:39:34;6.03;;;2.03;;
16179;SDS011;8196;49.428;10.906;2022-09-17T04:42:03;5.63;;;2.08;;
16179;SDS011;8196;49.428;10.906;2022-09-17T04:44:30;6.53;;;2.17;;
16179;SDS011;8196;49.428;10.906;2022-09-17T04:46:57;4.93;;;1.90;;
16179;SDS011;8196;49.428;10.906;2022-09-17T04:49:24;5.70;;;2.00;;
16179;SDS011;8196;49.428;10.906;2022-09-17T04:51:54;4.10;;;1.85;;
16179;SDS011;8196;49.428;10.906;2022-09-17T04:54:21;3.78;;;1.80;;
16179;SDS011;8196;49.428;10.906;2022-09-17T04:56:49;5.15;;;2.17;;
16179;SDS011;8196;49.428;10.906;2022-09-17T04:59:16;3.65;;;1.80;;
16179;SDS011;8196;49.428;10.906;2022-09-17T05:01:43;4.90;;;2.05;;
16179;SDS011;8196;49.428;10.906;2022-09-17T05:04:11;4.90;;;1.70;;
16179;SDS011;8196;49.428;10.906;2022-09-17T05:06:38;4.95;;;2.00;;
16179;SDS011;8196;49.428;10.906;2022-09-17T05:09:05;4.32;;;1.80;;
16179;SDS011;8196;49.428;10.906;2022-09-17T05:11:32;4.57;;;1.90;;
16179;SDS011;8196;49.428;10.906;2022-09-17T05:13:59;5.72;;;2.60;;
16179;SDS011;8196;49.428;10.906;2022-09-17T05:16:26;4.63;;;1.92;;
16179;SDS011;8196;49.428;10.906;2022-09-17T05:18:53;5.38;;;2.00;;
16179;SDS011;8196;49.428;10.906;2022-09-17T05:21:20;3.95;;;1.83;;
16179;SDS011;8196;49.428;10.906;2022-09-17T05:23:48;3.78;;;1.60;;
16179;SDS011;8196;49.428;10.906;2022-09-17T05:26:15;4.78;;;1.77;;
16179;SDS011;8196;49.428;10.906;2022-09-17T05:28:42;5.03;;;2.10;;
16179;SDS011;8196;49.428;10.906;2022-09-17T05:31:09;5.70;;;2.20;;
16179;SDS011;8196;49.428;10.906;2022-09-17T05:33:36;4.00;;;1.98;;
16179;SDS011;8196;49.428;10.906;2022-09-17T05:36:03;3.97;;;1.80;;
16179;SDS011;8196;49.428;10.906;2022-09-17T05:38:30;3.17;;;1.80;;
16179;SDS011;8196;49.428;10.906;2022-09-17T05:40:57;3.65;;;1.65;;
16179;SDS011;8196;49.428;10.906;2022-09-17T05:43:25;3.88;;;1.83;;
16179;SDS011;8196;49.428;10.906;2022-09-17T05:45:52;4.55;;;1.90;;
16179;SDS011;8196;49.428;10.906;2022-09-17T05:48:19;3.65;;;1.92;;
16179;SDS011;8196;49.428;10.906;2022-09-17T05:50:46;4.07;;;2.20;;
16179;SDS011;8196;49.428;10.906;2022-09-17T05:53:13;4.35;;;2.08;;
16179;SDS011;8196;49.428;10.906;2022-09-17T05:55:41;3.53;;;1.95;;
16179;SDS011;8196;49.428;10.906;2022-09-17T05:58:08;3.00;;;1.85;;
16179;SDS011;8196;49.428;10.906;2022-09-17T06:00:36;3.55;;;2.20;;
16179;SDS011;8196;49.428;10.906;2022-09-17T06:03:03;3.47;;;1.95;;
16179;SDS011;8196;49.428;10.906;2022-09-17T06:05:31;3.22;;;1.75;;
16179;SDS011;8196;49.428;10.906;2022-09-17T06:07:58;2.90;;;1.60;;
16179;SDS011;8196;49.428;10.906;2022-09-17T06:10:25;3.22;;;1.50;;
16179;SDS011;8196;49.428;10.906;2022-09-17T06:12:59;2.65;;;1.25;;
16179;SDS011;8196;49.428;10.906;2022-09-17T06:15:26;1.92;;;1.38;;
16179;SDS011;8196;49.428;10.906;2022-09-17T06:17:54;2.35;;;1.45;;
16179;SDS011;8196;49.428;10.906;2022-09-17T06:20:21;2.30;;;1.42;;
16179;SDS011;8196;49.428;10.906;2022-09-17T06:22:48;2.25;;;1.65;;
16179;SDS011;8196;49.428;10.906;2022-09-17T06:25:15;2.28;;;1.42;;
16179;SDS011;8196;49.428;10.906;2022-09-17T06:27:42;2.55;;;1.30;;
16179;SDS011;8196;49.428;10.906;2022-09-17T06:30:09;2.35;;;1.20;;
16179;SDS011;8196;49.428;10.906;2022-09-17T06:32:36;3.05;;;1.50;;
16179;SDS011;8196;49.428;10.906;2022-09-17T06:35:04;2.40;;;1.70;;
16179;SDS011;8196;49.428;10.906;2022-09-17T06:37:31;2.42;;;1.42;;
16179;SDS011;8196;49.428;10.906;2022-09-17T06:39:58;4.82;;;1.80;;
16179;SDS011;8196;49.428;10.906;2022-09-17T06:42:26;2.70;;;1.70;;
16179;SDS011;8196;49.428;10.906;2022-09-17T06:44:54;2.58;;;1.80;;
16179;SDS011;8196;49.428;10.906;2022-09-17T06:47:24;3.07;;;1.60;;
16179;SDS011;8196;49.428;10.906;2022-09-17T06:49:52;4.43;;;1.80;;
16179;SDS011;8196;49.428;10.906;2022-09-17T06:52:22;2.00;;;1.50;;
16179;SDS011;8196;49.428;10.906;2022-09-17T06:54:49;3.25;;;1.90;;
16179;SDS011;8196;49.428;10.906;2022-09-17T06:57:16;2.15;;;1.55;;
16179;SDS011;8196;49.428;10.906;2022-09-17T06:59:43;4.20;;;1.60;;
16179;SDS011;8196;49.428;10.906;2022-09-17T07:02:10;2.70;;;1.85;;
16179;SDS011;8196;49.428;10.906;2022-09-17T07:04:37;2.75;;;1.70;;
16179;SDS011;8196;49.428;10.906;2022-09-17T07:07:04;3.85;;;1.70;;
16179;SDS011;8196;49.428;10.906;2022-09-17T07:09:31;3.53;;;1.90;;
16179;SDS011;8196;49.428;10.906;2022-09-17T07:11:58;3.10;;;1.83;;
16179;SDS011;8196;49.428;10.906;2022-09-17T07:14:26;2.65;;;1.92;;
16179;SDS011;8196;49.428;10.906;2022-09-17T07:16:53;2.88;;;2.00;;
16179;SDS011;8196;49.428;10.906;2022-09-17T07:19:20;3.70;;;1.88;;
16179;SDS011;8196;49.428;10.906;2022-09-17T07:21:47;0.00;;;0.00;;
16179;SDS011;8196;49.428;10.906;2022-09-17T07:24:14;0.20;;;0.20;;
16179;SDS011;8196;49.428;10.906;2022-09-17T07:26:41;0.30;;;0.30;;
16179;SDS011;8196;49.428;10.906;2022-09-17T07:29:08;0.00;;;0.00;;
16179;SDS011;8196;49.428;10.906;2022-09-17T07:31:35;0.20;;;0.20;;
16179;SDS011;8196;49.428;10.906;2022-09-17T07:34:03;0.20;;;0.20;;
16179;SDS011;8196;49.428;10.906;2022-09-17T07:36:30;0.20;;;0.20;;
16179;SDS011;8196;49.428;10.906;2022-09-17T07:38:57;0.60;;;0.60;;
16179;SDS011;8196;49.428;10.906;2022-09-17T07:41:24;0.20;;;0.20;;
16179;SDS011;8196;49.428;10.906;2022-09-17T07:43:51;0.20;;;0.20;;
16179;SDS011;8196;49.428;10.906;2022-09-17T07:46:20;0.10;;;0.10;;
16179;SDS011;8196;49.428;10.906;2022-09-17T07:48:48;0.85;;;0.85;;
16179;SDS011;8196;49.428;10.906;2022-09-17T07:51:17;0.30;;;0.30;;
16179;SDS011;8196;49.428;10.906;2022-09-17T07:53:44;0.40;;;0.40;;
16179;SDS011;8196;49.428;10.906;2022-09-17T07:56:12;0.40;;;0.40;;
16179;SDS011;8196;49.428;10.906;2022-09-17T07:58:39;0.10;;;0.10;;
16179;SDS011;8196;49.428;10.906;2022-09-17T08:01:08;0.10;;;0.10;;
16179;SDS011;8196;49.428;10.906;2022-09-17T08:03:36;0.30;;;0.30;;
16179;SDS011;8196;49.428;10.906;2022-09-17T08:08:31;1.27;;;0.45;;
16179;SDS011;8196;49.428;10.906;2022-09-17T08:10:59;0.17;;;0.17;;
16179;SDS011;8196;49.428;10.906;2022-09-17T08:13:27;0.40;;;0.40;;
16179;SDS011;8196;49.428;10.906;2022-09-17T08:15:58;2.10;;;0.47;;
16179;SDS011;8196;49.428;10.906;2022-09-17T08:18:26;0.10;;;0.10;;
16179;SDS011;8196;49.428;10.906;2022-09-17T08:20:57;0.10;;;0.10;;
16179;SDS011;8196;49.428;10.906;2022-09-17T08:23:24;3.35;;;2.20;;
16179;SDS011;8196;49.428;10.906;2022-09-17T08:25:53;5.47;;;2.90;;
16179;SDS011;8196;49.428;10.906;2022-09-17T08:28:20;4.60;;;2.65;;
16179;SDS011;8196;49.428;10.906;2022-09-17T08:30:48;3.65;;;2.45;;
16179;SDS011;8196;49.428;10.906;2022-09-17T08:33:16;3.75;;;2.78;;
16179;SDS011;8196;49.428;10.906;2022-09-17T08:35:59;3.95;;;2.65;;
16179;SDS011;8196;49.428;10.906;2022-09-17T08:38:27;5.25;;;2.90;;
16179;SDS011;8196;49.428;10.906;2022-09-17T08:44:00;6.30;;;3.10;;
16179;SDS011;8196;49.428;10.906;2022-09-17T08:46:27;4.38;;;2.65;;
16179;SDS011;8196;49.428;10.906;2022-09-17T08:51:37;6.03;;;4.00;;
16179;SDS011;8196;49.428;10.906;2022-09-17T08:56:36;5.82;;;3.00;;
16179;SDS011;8196;49.428;10.906;2022-09-17T09:01:33;5.07;;;2.90;;
16179;SDS011;8196;49.428;10.906;2022-09-17T09:06:48;6.17;;;3.10;;
16179;SDS011;8196;49.428;10.906;2022-09-17T09:09:17;4.97;;;2.80;;
16179;SDS011;8196;49.428;10.906;2022-09-17T09:11:46;4.93;;;2.65;;
16179;SDS011;8196;49.428;10.906;2022-09-17T09:14:30;4.30;;;2.42;;
16179;SDS011;8196;49.428;10.906;2022-09-17T09:16:58;5.13;;;2.40;;
16179;SDS011;8196;49.428;10.906;2022-09-17T09:19:29;5.00;;;2.60;;
16179;SDS011;8196;49.428;10.906;2022-09-17T09:24:49;4.80;;;2.60;;
16179;SDS011;8196;49.428;10.906;2022-09-17T09:27:26;5.22;;;2.58;;
16179;SDS011;8196;49.428;10.906;2022-09-17T09:30:09;5.85;;;2.75;;
16179;SDS011;8196;49.428;10.906;2022-09-17T09:35:24;5.75;;;2.85;;
16179;SDS011;8196;49.428;10.906;2022-09-17T09:40:30;5.40;;;3.20;;
16179;SDS011;8196;49.428;10.906;2022-09-17T09:43:00;6.38;;;3.83;;
16179;SDS011;8196;49.428;10.906;2022-09-17T09:45:46;12.82;;;7.15;;
16179;SDS011;8196;49.428;10.906;2022-09-17T09:48:22;11.25;;;5.18;;
16179;SDS011;8196;49.428;10.906;2022-09-17T09:53:45;8.68;;;4.40;;
16179;SDS011;8196;49.428;10.906;2022-09-17T09:59:05;4.82;;;3.00;;
16179;SDS011;8196;49.428;10.906;2022-09-17T10:01:32;7.90;;;3.63;;
16179;SDS011;8196;49.428;10.906;2022-09-17T10:04:00;8.00;;;3.65;;
16179;SDS011;8196;49.428;10.906;2022-09-17T10:06:28;6.05;;;2.83;;
16179;SDS011;8196;49.428;10.906;2022-09-17T10:11:23;5.40;;;2.40;;
16179;SDS011;8196;49.428;10.906;2022-09-17T10:13:52;7.55;;;2.47;;
16179;SDS011;8196;49.428;10.906;2022-09-17T10:16:38;5.00;;;2.40;;
16179;SDS011;8196;49.428;10.906;2022-09-17T10:24:01;4.97;;;2.40;;
16179;SDS011;8196;49.428;10.906;2022-09-17T10:26:32;5.88;;;3.20;;
16179;SDS011;8196;49.428;10.906;2022-09-17T10:29:01;5.73;;;2.97;;
16179;SDS011;8196;49.428;10.906;2022-09-17T10:31:47;5.57;;;2.85;;
16179;SDS011;8196;49.428;10.906;2022-09-17T10:34:20;4.70;;;2.40;;
16179;SDS011;8196;49.428;10.906;2022-09-17T10:36:48;5.50;;;2.20;;
16179;SDS011;8196;49.428;10.906;2022-09-17T10:39:17;5.47;;;2.20;;
16179;SDS011;8196;49.428;10.906;2022-09-17T10:41:53;8.07;;;2.70;;
16179;SDS011;8196;49.428;10.906;2022-09-17T10:44:21;6.40;;;2.90;;
16179;SDS011;8196;49.428;10.906;2022-09-17T10:46:50;8.10;;;3.80;;
16179;SDS011;8196;49.428;10.906;2022-09-17T10:51:51;7.53;;;3.10;;
16179;SDS011;8196;49.428;10.906;2022-09-17T10:57:21;6.28;;;2.63;;
16179;SDS011;8196;49.428;10.906;2022-09-17T11:00:10;4.78;;;2.40;;
16179;SDS011;8196;49.428;10.906;2022-09-17T11:23:14;4.97;;;2.20;;
16179;SDS011;8196;49.428;10.906;2022-09-17T11:30:55;5.88;;;2.88;;
16179;SDS011;8196;49.428;10.906;2022-09-17T11:36:22;4.30;;;2.47;;
16179;SDS011;8196;49.428;10.906;2022-09-17T11:38:55;6.25;;;2.85;;
16179;SDS011;8196;49.428;10.906;2022-09-17T11:41:26;5.50;;;3.07;;
16179;SDS011;8196;49.428;10.906;2022-09-17T11:44:03;5.83;;;3.17;;
16179;SDS011;8196;49.428;10.906;2022-09-17T11:46:38;5.32;;;2.55;;
16179;SDS011;8196;49.428;10.906;2022-09-17T11:49:13;5.55;;;2.20;;
16179;SDS011;8196;49.428;10.906;2022-09-17T11:51:55;4.15;;;2.10;;
16179;SDS011;8196;49.428;10.906;2022-09-17T11:54:25;4.80;;;2.10;;
16179;SDS011;8196;49.428;10.906;2022-09-17T12:00:03;4.43;;;2.30;;
16179;SDS011;8196;49.428;10.906;2022-09-17T12:05:32;2.95;;;2.10;;
16179;SDS011;8196;49.428;10.906;2022-09-17T12:11:00;2.05;;;1.38;;
16179;SDS011;8196;49.428;10.906;2022-09-17T12:13:37;1.83;;;1.27;;
16179;SDS011;8196;49.428;10.906;2022-09-17T12:16:14;2.22;;;1.30;;
16179;SDS011;8196;49.428;10.906;2022-09-17T12:21:09;3.35;;;1.48;;
16179;SDS011;8196;49.428;10.906;2022-09-17T12:23:47;2.60;;;1.50;;
16179;SDS011;8196;49.428;10.906;2022-09-17T12:29:31;2.90;;;1.30;;
16179;SDS011;8196;49.428;10.906;2022-09-17T12:32:03;3.17;;;1.27;;
16179;SDS011;8196;49.428;10.906;2022-09-17T12:37:33;2.28;;;1.27;;
16179;SDS011;8196;49.428;10.906;2022-09-17T12:40:42;3.75;;;1.45;;
16179;SDS011;8196;49.428;10.906;2022-09-17T12:56:22;2.97;;;1.40;;
16179;SDS011;8196;49.428;10.906;2022-09-17T12:59:12;3.33;;;2.23;;
16179;SDS011;8196;49.428;10.906;2022-09-17T13:01:53;3.80;;;1.53;;
16179;SDS011;8196;49.428;10.906;2022-09-17T13:10:25;3.65;;;1.70;;
16179;SDS011;8196;49.428;10.906;2022-09-17T13:16:02;3.63;;;1.50;;
16179;SDS011;8196;49.428;10.906;2022-09-17T13:18:53;2.53;;;1.50;;
16179;SDS011;8196;49.428;10.906;2022-09-17T13:24:17;1.88;;;1.48;;
16179;SDS011;8196;49.428;10.906;2022-09-17T13:26:47;4.40;;;1.70;;
16179;SDS011;8196;49.428;10.906;2022-09-17T13:32:08;3.13;;;1.73;;
16179;SDS011;8196;49.428;10.906;2022-09-17T13:34:55;2.55;;;1.10;;
16179;SDS011;8196;49.428;10.906;2022-09-17T13:37:22;2.80;;;1.20;;
16179;SDS011;8196;49.428;10.906;2022-09-17T13:39:49;1.50;;;1.10;;
16179;SDS011;8196;49.428;10.906;2022-09-17T13:42:18;1.90;;;1.40;;
16179;SDS011;8196;49.428;10.906;2022-09-17T13:45:00;2.20;;;1.13;;
16179;SDS011;8196;49.428;10.906;2022-09-17T13:47:37;2.30;;;1.10;;
16179;SDS011;8196;49.428;10.906;2022-09-17T13:50:34;1.95;;;0.77;;
16179;SDS011;8196;49.428;10.906;2022-09-17T13:53:16;1.73;;;0.82;;
16179;SDS011;8196;49.428;10.906;2022-09-17T14:00:54;1.48;;;1.20;;
16179;SDS011;8196;49.428;10.906;2022-09-17T14:05:58;1.95;;;1.33;;
16179;SDS011;8196;49.428;10.906;2022-09-17T14:13:54;1.75;;;1.10;;
16179;SDS011;8196;49.428;10.906;2022-09-17T14:24:23;1.95;;;1.10;;
16179;SDS011;8196;49.428;10.906;2022-09-17T14:32:47;2.20;;;1.30;;
16179;SDS011;8196;49.428;10.906;2022-09-17T14:35:40;3.72;;;1.40;;
16179;SDS011;8196;49.428;10.906;2022-09-17T14:40:57;2.38;;;1.45;;
16179;SDS011;8196;49.428;10.906;2022-09-17T14:43:33;2.25;;;1.30;;
16179;SDS011;8196;49.428;10.906;2022-09-17T14:46:19;1.77;;;1.20;;
16179;SDS011;8196;49.428;10.906;2022-09-17T14:48:49;2.07;;;1.20;;
16179;SDS011;8196;49.428;10.906;2022-09-17T14:53:43;1.77;;;1.17;;
16179;SDS011;8196;49.428;10.906;2022-09-17T14:56:11;2.08;;;1.20;;
16179;SDS011;8196;49.428;10.906;2022-09-17T14:58:41;2.17;;;1.27;;
16179;SDS011;8196;49.428;10.906;2022-09-17T15:01:29;2.60;;;1.50;;
16179;SDS011;8196;49.428;10.906;2022-09-17T15:06:39;3.35;;;1.63;;
16179;SDS011;8196;49.428;10.906;2022-09-17T15:09:15;2.65;;;1.50;;
16179;SDS011;8196;49.428;10.906;2022-09-17T15:11:44;4.18;;;1.92;;
16179;SDS011;8196;49.428;10.906;2022-09-17T15:14:15;2.72;;;1.50;;
16179;SDS011;8196;49.428;10.906;2022-09-17T15:16:46;5.05;;;1.80;;
16179;SDS011;8196;49.428;10.906;2022-09-17T15:19:19;3.92;;;1.73;;
16179;SDS011;8196;49.428;10.906;2022-09-17T15:21:54;1.48;;;1.20;;
16179;SDS011;8196;49.428;10.906;2022-09-17T15:27:18;2.72;;;1.23;;
16179;SDS011;8196;49.428;10.906;2022-09-17T15:29:50;2.90;;;1.25;;
16179;SDS011;8196;49.428;10.906;2022-09-17T15:32:22;2.10;;;1.17;;
16179;SDS011;8196;49.428;10.906;2022-09-17T15:40:33;2.90;;;1.07;;
16179;SDS011;8196;49.428;10.906;2022-09-17T15:45:50;3.45;;;1.30;;
16179;SDS011;8196;49.428;10.906;2022-09-17T15:50:49;2.72;;;1.10;;
16179;SDS011;8196;49.428;10.906;2022-09-17T15:53:20;2.15;;;1.10;;
16179;SDS011;8196;49.428;10.906;2022-09-17T16:11:13;4.20;;;3.00;;
16179;SDS011;8196;49.428;10.906;2022-09-17T16:13:40;10.43;;;7.75;;
16179;SDS011;8196;49.428;10.906;2022-09-17T16:16:07;2.83;;;1.42;;
16179;SDS011;8196;49.428;10.906;2022-09-17T16:18:40;4.05;;;2.50;;
16179;SDS011;8196;49.428;10.906;2022-09-17T16:21:09;5.28;;;2.90;;
16179;SDS011;8196;49.428;10.906;2022-09-17T16:23:38;6.32;;;2.90;;
16179;SDS011;8196;49.428;10.906;2022-09-17T16:26:05;4.03;;;2.90;;
16179;SDS011;8196;49.428;10.906;2022-09-17T16:28:35;14.77;;;11.10;;
16179;SDS011;8196;49.428;10.906;2022-09-17T16:31:03;8.27;;;5.07;;
16179;SDS011;8196;49.428;10.906;2022-09-17T16:33:31;3.67;;;1.90;;
16179;SDS011;8196;49.428;10.906;2022-09-17T16:35:58;4.03;;;2.20;;
16179;SDS011;8196;49.428;10.906;2022-09-17T16:38:25;3.33;;;1.35;;
16179;SDS011;8196;49.428;10.906;2022-09-17T16:40:52;2.85;;;1.33;;
16179;SDS011;8196;49.428;10.906;2022-09-17T16:43:18;2.88;;;1.67;;
16179;SDS011;8196;49.428;10.906;2022-09-17T16:45:58;5.30;;;1.80;;
16179;SDS011;8196;49.428;10.906;2022-09-17T16:48:25;3.15;;;1.65;;
16179;SDS011;8196;49.428;10.906;2022-09-17T16:50:52;4.25;;;1.65;;
16179;SDS011;8196;49.428;10.906;2022-09-17T16:53:19;4.38;;;1.48;;
16179;SDS011;8196;49.428;10.906;2022-09-17T16:55:46;3.03;;;1.10;;
16179;SDS011;8196;49.428;10.906;2022-09-17T16:58:13;3.15;;;1.13;;
16179;SDS011;8196;49.428;10.906;2022-09-17T17:00:41;2.80;;;1.20;;
16179;SDS011;8196;49.428;10.906;2022-09-17T17:03:10;4.05;;;1.45;;
16179;SDS011;8196;49.428;10.906;2022-09-17T17:05:38;3.78;;;1.25;;
16179;SDS011;8196;49.428;10.906;2022-09-17T17:08:06;2.13;;;1.10;;
16179;SDS011;8196;49.428;10.906;2022-09-17T17:10:34;2.80;;;1.00;;
16179;SDS011;8196;49.428;10.906;2022-09-17T17:13:01;1.30;;;0.90;;
16179;SDS011;8196;49.428;10.906;2022-09-17T17:15:28;1.65;;;0.90;;
16179;SDS011;8196;49.428;10.906;2022-09-17T17:17:55;0.20;;;0.20;;
16179;SDS011;8196;49.428;10.906;2022-09-17T17:20:22;0.10;;;0.10;;
16179;SDS011;8196;49.428;10.906;2022-09-17T17:22:49;0.10;;;0.10;;
16179;SDS011;8196;49.428;10.906;2022-09-17T17:25:17;0.10;;;0.10;;
16179;SDS011;8196;49.428;10.906;2022-09-17T17:27:44;0.20;;;0.20;;
16179;SDS011;8196;49.428;10.906;2022-09-17T17:30:11;2.70;;;0.60;;
16179;SDS011;8196;49.428;10.906;2022-09-17T17:32:42;0.57;;;0.57;;
16179;SDS011;8196;49.428;10.906;2022-09-17T17:35:10;0.30;;;0.30;;
16179;SDS011;8196;49.428;10.906;2022-09-17T17:37:37;0.20;;;0.20;;
16179;SDS011;8196;49.428;10.906;2022-09-17T17:40:04;0.10;;;0.10;;
16179;SDS011;8196;49.428;10.906;2022-09-17T17:42:35;0.40;;;0.40;;
16179;SDS011;8196;49.428;10.906;2022-09-17T17:45:04;0.10;;;0.10;;
16179;SDS011;8196;49.428;10.906;2022-09-17T17:47:32;0.00;;;0.00;;
16179;SDS011;8196;49.428;10.906;2022-09-17T17:49:59;1.10;;;0.40;;
16179;SDS011;8196;49.428;10.906;2022-09-17T17:52:26;0.50;;;0.30;;
16179;SDS011;8196;49.428;10.906;2022-09-17T17:54:53;0.30;;;0.30;;
16179;SDS011;8196;49.428;10.906;2022-09-17T17:57:20;1.50;;;0.82;;
16179;SDS011;8196;49.428;10.906;2022-09-17T17:59:48;0.30;;;0.30;;
16179;SDS011;8196;49.428;10.906;2022-09-17T18:02:15;0.85;;;0.85;;
16179;SDS011;8196;49.428;10.906;2022-09-17T18:04:42;0.20;;;0.20;;
16179;SDS011;8196;49.428;10.906;2022-09-17T18:07:09;0.17;;;0.17;;
16179;SDS011;8196;49.428;10.906;2022-09-17T18:09:36;0.35;;;0.35;;
16179;SDS011;8196;49.428;10.906;2022-09-17T18:12:03;0.10;;;0.10;;
16179;SDS011;8196;49.428;10.906;2022-09-17T18:14:30;0.22;;;0.22;;
16179;SDS011;8196;49.428;10.906;2022-09-17T18:16:58;0.10;;;0.10;;
16179;SDS011;8196;49.428;10.906;2022-09-17T18:19:25;0.57;;;0.57;;
16179;SDS011;8196;49.428;10.906;2022-09-17T18:21:53;0.80;;;0.80;;
16179;SDS011;8196;49.428;10.906;2022-09-17T18:24:20;0.50;;;0.50;;
16179;SDS011;8196;49.428;10.906;2022-09-17T18:26:47;0.50;;;0.50;;
16179;SDS011;8196;49.428;10.906;2022-09-17T18:29:14;0.17;;;0.17;;
16179;SDS011;8196;49.428;10.906;2022-09-17T18:31:41;0.52;;;0.52;;
16179;SDS011;8196;49.428;10.906;2022-09-17T18:34:11;1.42;;;0.30;;
16179;SDS011;8196;49.428;10.906;2022-09-17T18:36:39;0.38;;;0.38;;
16179;SDS011;8196;49.428;10.906;2022-09-17T18:39:07;0.50;;;0.40;;
16179;SDS011;8196;49.428;10.906;2022-09-17T18:41:55;0.20;;;0.20;;
16179;SDS011;8196;49.428;10.906;2022-09-17T18:44:22;0.22;;;0.22;;
16179;SDS011;8196;49.428;10.906;2022-09-17T18:46:50;1.30;;;1.02;;